createdAt,value
2022-12-25T00:00:21.014Z,0.00
2022-12-25T00:01:17.617Z,0.00
2022-12-25T00:02:18.710Z,0.00
2022-12-25T00:03:17.682Z,0.00
2022-12-25T00:04:17.530Z,0.00
2022-12-25T00:05:18.532Z,0.00
2022-12-25T00:06:18.506Z,0.00
2022-12-25T00:07:17.482Z,0.00
2022-12-25T00:08:17.495Z,0.00
2022-12-25T00:09:17.467Z,0.00
2022-12-25T00:10:17.498Z,0.00
2022-12-25T00:11:17.482Z,0.00
2022-12-25T00:12:17.440Z,0.00
2022-12-25T00:13:17.461Z,0.00
2022-12-25T00:14:17.450Z,0.00
2022-12-25T00:15:17.393Z,0.00
2022-12-25T00:16:17.469Z,0.00
2022-12-25T00:17:17.387Z,0.00
2022-12-25T00:18:17.389Z,0.00
2022-12-25T00:19:17.404Z,0.00
2022-12-25T00:20:17.390Z,0.00
2022-12-25T00:21:17.341Z,0.00
2022-12-25T00:22:17.353Z,0.00
2022-12-25T00:23:17.359Z,0.00
2022-12-25T00:24:17.304Z,0.00
2022-12-25T00:25:17.330Z,0.00
2022-12-25T00:26:17.294Z,0.00
2022-12-25T00:27:17.301Z,0.00
2022-12-25T00:28:18.277Z,0.00
2022-12-25T00:29:17.274Z,0.00
2022-12-25T00:30:17.250Z,0.00
2022-12-25T00:31:17.342Z,0.00
2022-12-25T00:32:17.240Z,0.00
2022-12-25T00:33:17.206Z,0.00
2022-12-25T00:34:17.184Z,0.00
2022-12-25T00:35:17.216Z,0.00
2022-12-25T00:36:17.206Z,0.00
2022-12-25T00:37:17.185Z,0.00
2022-12-25T00:38:17.156Z,0.00
2022-12-25T00:39:17.150Z,0.00
2022-12-25T00:40:17.166Z,0.00
2022-12-25T00:41:17.124Z,0.00
2022-12-25T00:42:17.147Z,0.00
2022-12-25T00:43:17.133Z,0.00
2022-12-25T00:44:17.078Z,0.00
2022-12-25T00:45:17.089Z,0.00
2022-12-25T00:46:18.196Z,0.00
2022-12-25T00:47:17.126Z,0.00
2022-12-25T00:48:17.083Z,0.00
2022-12-25T00:49:17.062Z,0.00
2022-12-25T00:50:17.025Z,0.00
2022-12-25T00:51:17.069Z,0.00
2022-12-25T00:52:17.004Z,0.00
2022-12-25T00:53:17.044Z,0.00
2022-12-25T00:54:16.967Z,0.00
2022-12-25T00:55:16.986Z,0.00
2022-12-25T00:56:16.949Z,0.00
2022-12-25T00:57:16.967Z,0.00
2022-12-25T00:58:16.923Z,0.00
2022-12-25T00:59:17.101Z,0.00
2022-12-25T01:00:16.907Z,0.00
2022-12-25T01:01:17.187Z,0.00
2022-12-25T01:02:17.092Z,0.00
2022-12-25T01:03:18.001Z,0.00
2022-12-25T01:04:16.908Z,0.00
2022-12-25T01:05:16.890Z,0.00
2022-12-25T01:06:16.881Z,0.00
2022-12-25T01:07:16.970Z,0.00
2022-12-25T01:08:16.829Z,0.00
2022-12-25T01:09:17.877Z,0.00
2022-12-25T01:10:16.819Z,0.00
2022-12-25T01:11:16.813Z,0.00
2022-12-25T01:12:16.831Z,0.00
2022-12-25T01:13:16.771Z,0.00
2022-12-25T01:14:16.859Z,0.00
2022-12-25T01:15:16.750Z,0.00
2022-12-25T01:16:16.762Z,0.00
2022-12-25T01:17:17.781Z,0.00
2022-12-25T01:18:17.740Z,0.00
2022-12-25T01:19:16.723Z,0.00
2022-12-25T01:20:17.707Z,0.00
2022-12-25T01:21:16.691Z,0.00
2022-12-25T01:22:17.735Z,0.00
2022-12-25T01:23:16.717Z,0.00
2022-12-25T01:24:16.659Z,0.00
2022-12-25T01:25:16.647Z,0.00
2022-12-25T01:26:16.659Z,0.00
2022-12-25T01:27:17.650Z,0.00
2022-12-25T01:28:16.646Z,0.00
2022-12-25T01:29:17.609Z,0.00
2022-12-25T01:30:16.587Z,0.00
2022-12-25T01:31:16.644Z,0.00
2022-12-25T01:32:16.599Z,0.00
2022-12-25T01:33:16.566Z,0.00
2022-12-25T01:34:16.557Z,0.00
2022-12-25T01:35:16.561Z,0.00
2022-12-25T01:36:16.530Z,0.00
2022-12-25T01:37:16.538Z,0.00
2022-12-25T01:38:16.538Z,0.00
2022-12-25T01:39:16.506Z,0.00
2022-12-25T01:40:16.507Z,0.00
2022-12-25T01:41:16.520Z,0.00
2022-12-25T01:42:16.475Z,0.00
2022-12-25T01:43:18.717Z,0.00
2022-12-25T01:44:16.479Z,0.00
2022-12-25T01:45:16.437Z,0.00
2022-12-25T01:46:17.540Z,0.00
2022-12-25T01:47:16.446Z,0.00
2022-12-25T01:48:16.384Z,0.00
2022-12-25T01:49:16.371Z,0.00
2022-12-25T01:50:16.418Z,0.00
2022-12-25T01:51:17.387Z,0.00
2022-12-25T01:52:21.784Z,0.00
2022-12-25T01:53:17.346Z,0.00
2022-12-25T01:54:16.333Z,0.00
2022-12-25T01:55:17.333Z,0.00
2022-12-25T01:56:16.353Z,0.00
2022-12-25T01:57:16.301Z,0.00
2022-12-25T01:58:16.294Z,0.00
2022-12-25T01:59:17.299Z,0.00
2022-12-25T02:00:16.284Z,0.00
2022-12-25T02:01:17.499Z,0.00
2022-12-25T02:02:17.351Z,0.00
2022-12-25T02:03:16.293Z,0.00
2022-12-25T02:04:16.251Z,0.00
2022-12-25T02:05:16.259Z,0.00
2022-12-25T02:06:16.269Z,0.00
2022-12-25T02:07:16.191Z,0.00
2022-12-25T02:08:16.184Z,0.00
2022-12-25T02:09:16.285Z,0.00
2022-12-25T02:10:16.182Z,0.00
2022-12-25T02:11:16.160Z,0.00
2022-12-25T02:12:16.144Z,0.00
2022-12-25T02:13:16.124Z,0.00
2022-12-25T02:14:16.167Z,0.00
2022-12-25T02:15:16.131Z,0.00
2022-12-25T02:16:16.195Z,0.00
2022-12-25T02:17:16.148Z,0.00
2022-12-25T02:18:16.082Z,0.00
2022-12-25T02:19:17.076Z,0.00
2022-12-25T02:20:16.035Z,0.00
2022-12-25T02:21:16.051Z,0.00
2022-12-25T02:22:16.033Z,0.00
2022-12-25T02:23:17.064Z,0.00
2022-12-25T02:24:15.998Z,0.00
2022-12-25T02:25:16.006Z,0.00
2022-12-25T02:26:17.045Z,0.00
2022-12-25T02:27:16.039Z,0.00
2022-12-25T02:28:15.990Z,0.00
2022-12-25T02:29:15.969Z,0.00
2022-12-25T02:30:15.969Z,0.00
2022-12-25T02:31:16.930Z,0.00
2022-12-25T02:32:15.996Z,0.00
2022-12-25T02:33:15.919Z,0.00
2022-12-25T02:34:15.883Z,0.00
2022-12-25T02:35:15.900Z,0.00
2022-12-25T02:36:16.897Z,0.00
2022-12-25T02:37:15.886Z,0.00
2022-12-25T02:38:15.911Z,0.00
2022-12-25T02:39:16.835Z,0.00
2022-12-25T02:40:16.843Z,0.00
2022-12-25T02:41:15.827Z,0.00
2022-12-25T02:42:15.797Z,0.00
2022-12-25T02:43:15.841Z,0.00
2022-12-25T02:44:15.849Z,0.00
2022-12-25T02:45:15.821Z,0.00
2022-12-25T02:46:15.850Z,0.00
2022-12-25T02:47:15.750Z,0.00
2022-12-25T02:48:15.757Z,0.00
2022-12-25T02:49:15.755Z,0.00
2022-12-25T02:50:15.729Z,0.00
2022-12-25T02:51:16.563Z,0.00
2022-12-25T02:52:15.707Z,0.00
2022-12-25T02:53:15.673Z,0.00
2022-12-25T02:54:15.676Z,0.00
2022-12-25T02:55:15.666Z,0.00
2022-12-25T02:56:16.694Z,0.00
2022-12-25T02:57:16.632Z,0.00
2022-12-25T02:58:15.660Z,0.00
2022-12-25T02:59:15.704Z,0.00
2022-12-25T03:00:15.682Z,0.00
2022-12-25T03:01:15.768Z,0.00
2022-12-25T03:02:15.652Z,0.00
2022-12-25T03:03:15.642Z,0.00
2022-12-25T03:04:15.620Z,0.00
2022-12-25T03:05:16.560Z,0.00
2022-12-25T03:06:15.566Z,0.00
2022-12-25T03:07:15.543Z,0.00
2022-12-25T03:08:15.535Z,0.00
2022-12-25T03:09:16.528Z,0.00
2022-12-25T03:10:15.499Z,0.00
2022-12-25T03:11:15.567Z,0.00
2022-12-25T03:12:16.526Z,0.00
2022-12-25T03:13:15.524Z,0.00
2022-12-25T03:14:15.519Z,0.00
2022-12-25T03:15:15.486Z,0.00
2022-12-25T03:16:15.513Z,0.00
2022-12-25T03:17:15.405Z,0.00
2022-12-25T03:18:15.461Z,0.00
2022-12-25T03:19:15.460Z,0.00
2022-12-25T03:20:15.404Z,0.00
2022-12-25T03:21:15.406Z,0.00
2022-12-25T03:22:15.347Z,0.00
2022-12-25T03:23:15.439Z,0.00
2022-12-25T03:24:15.374Z,0.00
2022-12-25T03:25:15.352Z,0.00
2022-12-25T03:26:16.367Z,0.00
2022-12-25T03:27:15.311Z,0.00
2022-12-25T03:28:16.291Z,0.00
2022-12-25T03:29:15.354Z,0.00
2022-12-25T03:30:15.347Z,0.00
2022-12-25T03:31:16.381Z,0.00
2022-12-25T03:32:16.264Z,0.00
2022-12-25T03:33:43.187Z,0.00
2022-12-25T03:34:16.662Z,0.00
2022-12-25T03:35:15.239Z,0.00
2022-12-25T03:36:15.213Z,0.00
2022-12-25T03:37:16.243Z,0.00
2022-12-25T03:38:16.282Z,0.00
2022-12-25T03:39:15.222Z,0.00
2022-12-25T03:40:15.214Z,0.00
2022-12-25T03:41:15.171Z,0.00
2022-12-25T03:42:16.206Z,0.00
2022-12-25T03:43:15.157Z,0.00
2022-12-25T03:44:15.189Z,0.00
2022-12-25T03:45:15.165Z,0.00
2022-12-25T03:46:15.161Z,0.00
2022-12-25T03:47:15.126Z,0.00
2022-12-25T03:48:15.092Z,0.00
2022-12-25T03:49:15.109Z,0.00
2022-12-25T03:50:15.122Z,0.00
2022-12-25T03:51:15.104Z,0.00
2022-12-25T03:52:16.050Z,0.00
2022-12-25T03:53:16.049Z,0.00
2022-12-25T03:54:16.034Z,0.00
2022-12-25T03:55:15.025Z,0.00
2022-12-25T03:56:15.026Z,0.00
2022-12-25T03:57:14.973Z,0.00
2022-12-25T03:58:23.584Z,0.00
2022-12-25T03:59:21.124Z,0.00
2022-12-25T04:00:15.971Z,0.00
2022-12-25T04:01:15.122Z,0.00
2022-12-25T04:02:15.083Z,0.00
2022-12-25T04:03:16.063Z,0.00
2022-12-25T04:04:14.906Z,0.00
2022-12-25T04:05:15.517Z,0.00
2022-12-25T04:06:14.924Z,0.00
2022-12-25T04:07:14.871Z,0.00
2022-12-25T04:08:14.876Z,0.00
2022-12-25T04:09:14.885Z,0.00
2022-12-25T04:10:14.814Z,0.00
2022-12-25T04:11:14.856Z,0.00
2022-12-25T04:12:15.793Z,0.00
2022-12-25T04:13:14.820Z,0.00
2022-12-25T04:14:15.805Z,0.00
2022-12-25T04:15:14.781Z,0.00
2022-12-25T04:16:14.911Z,0.00
2022-12-25T04:17:14.772Z,0.00
2022-12-25T04:18:14.767Z,0.00
2022-12-25T04:19:15.734Z,0.00
2022-12-25T04:20:14.735Z,0.00
2022-12-25T04:21:14.743Z,0.00
2022-12-25T04:22:14.734Z,0.00
2022-12-25T04:23:14.698Z,0.00
2022-12-25T04:24:15.715Z,0.00
2022-12-25T04:25:14.653Z,0.00
2022-12-25T04:26:15.545Z,0.00
2022-12-25T04:27:15.669Z,0.00
2022-12-25T04:28:14.635Z,0.00
2022-12-25T04:29:15.602Z,0.00
2022-12-25T04:30:14.657Z,0.00
2022-12-25T04:31:14.662Z,0.00
2022-12-25T04:32:15.583Z,0.00
2022-12-25T04:33:15.583Z,0.00
2022-12-25T04:34:14.573Z,0.00
2022-12-25T04:35:14.589Z,0.00
2022-12-25T04:36:14.610Z,0.00
2022-12-25T04:37:14.526Z,0.00
2022-12-25T04:38:14.516Z,0.00
2022-12-25T04:39:14.539Z,0.00
2022-12-25T04:40:15.516Z,0.00
2022-12-25T04:41:14.500Z,0.00
2022-12-25T04:42:14.520Z,0.00
2022-12-25T04:43:14.465Z,0.00
2022-12-25T04:44:14.455Z,0.00
2022-12-25T04:45:14.440Z,0.00
2022-12-25T04:46:15.434Z,0.00
2022-12-25T04:47:14.457Z,0.00
2022-12-25T04:48:14.451Z,0.00
2022-12-25T04:49:14.418Z,0.00
2022-12-25T04:50:14.400Z,0.00
2022-12-25T04:51:14.385Z,0.00
2022-12-25T04:52:14.387Z,0.00
2022-12-25T04:53:14.343Z,0.00
2022-12-25T04:54:15.354Z,0.00
2022-12-25T04:55:15.318Z,0.00
2022-12-25T04:56:14.335Z,0.00
2022-12-25T04:57:14.323Z,0.00
2022-12-25T04:58:14.316Z,0.00
2022-12-25T04:59:14.285Z,0.00
2022-12-25T05:00:14.297Z,0.00
2022-12-25T05:01:14.324Z,0.00
2022-12-25T05:02:14.457Z,0.00
2022-12-25T05:03:14.375Z,0.00
2022-12-25T05:04:14.266Z,0.00
2022-12-25T05:05:14.214Z,0.00
2022-12-25T05:06:14.229Z,0.00
2022-12-25T05:07:14.226Z,0.00
2022-12-25T05:08:14.197Z,0.00
2022-12-25T05:09:14.182Z,0.00
2022-12-25T05:10:14.208Z,0.00
2022-12-25T05:11:14.159Z,0.00
2022-12-25T05:12:14.248Z,0.00
2022-12-25T05:13:14.126Z,0.00
2022-12-25T05:14:14.124Z,0.00
2022-12-25T05:15:14.118Z,0.00
2022-12-25T05:16:14.245Z,0.00
2022-12-25T05:17:14.089Z,0.00
2022-12-25T05:18:15.073Z,0.00
2022-12-25T05:19:14.075Z,0.00
2022-12-25T05:20:14.060Z,0.00
2022-12-25T05:21:14.060Z,0.00
2022-12-25T05:22:15.043Z,0.00
2022-12-25T05:23:14.024Z,0.00
2022-12-25T05:24:13.996Z,0.00
2022-12-25T05:25:14.025Z,0.00
2022-12-25T05:26:14.020Z,0.00
2022-12-25T05:27:13.975Z,0.00
2022-12-25T05:28:14.954Z,0.00
2022-12-25T05:29:14.951Z,0.00
2022-12-25T05:30:13.950Z,0.00
2022-12-25T05:31:14.008Z,0.00
2022-12-25T05:32:14.963Z,0.00
2022-12-25T05:33:14.941Z,0.00
2022-12-25T05:34:13.883Z,0.00
2022-12-25T05:35:14.884Z,0.00
2022-12-25T05:36:14.860Z,0.00
2022-12-25T05:37:13.881Z,0.00
2022-12-25T05:38:13.869Z,0.00
2022-12-25T05:39:13.889Z,0.00
2022-12-25T05:40:13.828Z,0.00
2022-12-25T05:41:13.808Z,0.00
2022-12-25T05:42:14.813Z,0.00
2022-12-25T05:43:13.818Z,0.00
2022-12-25T05:44:14.844Z,0.00
2022-12-25T05:45:14.763Z,0.00
2022-12-25T05:46:13.926Z,0.00
2022-12-25T05:47:13.749Z,0.00
2022-12-25T05:48:14.750Z,0.00
2022-12-25T05:49:13.721Z,0.00
2022-12-25T05:50:13.776Z,0.00
2022-12-25T05:51:13.700Z,0.00
2022-12-25T05:52:13.743Z,0.00
2022-12-25T05:53:14.705Z,0.00
2022-12-25T05:54:13.699Z,0.00
2022-12-25T05:55:13.739Z,0.00
2022-12-25T05:56:13.703Z,0.00
2022-12-25T05:57:14.627Z,0.00
2022-12-25T05:58:14.639Z,0.00
2022-12-25T05:59:14.631Z,0.00
2022-12-25T06:00:14.640Z,0.00
2022-12-25T06:01:13.626Z,0.00
2022-12-25T06:02:14.642Z,0.00
2022-12-25T06:03:13.737Z,0.00
2022-12-25T06:04:14.644Z,0.00
2022-12-25T06:05:13.623Z,0.00
2022-12-25T06:06:14.569Z,0.00
2022-12-25T06:07:13.531Z,0.00
2022-12-25T06:08:13.541Z,0.00
2022-12-25T06:09:14.565Z,0.00
2022-12-25T06:10:13.538Z,0.00
2022-12-25T06:11:14.503Z,0.00
2022-12-25T06:12:13.463Z,0.00
2022-12-25T06:13:13.569Z,0.00
2022-12-25T06:14:13.490Z,0.00
2022-12-25T06:15:13.473Z,0.00
2022-12-25T06:16:13.507Z,0.00
2022-12-25T06:17:13.446Z,0.00
2022-12-25T06:18:13.488Z,0.00
2022-12-25T06:19:13.403Z,0.00
2022-12-25T06:20:13.411Z,0.00
2022-12-25T06:21:14.405Z,0.00
2022-12-25T06:22:13.371Z,0.00
2022-12-25T06:23:13.482Z,0.00
2022-12-25T06:24:20.837Z,0.00
2022-12-25T06:25:14.379Z,0.00
2022-12-25T06:26:13.377Z,0.00
2022-12-25T06:27:13.368Z,0.00
2022-12-25T06:28:13.305Z,0.00
2022-12-25T06:29:14.293Z,0.00
2022-12-25T06:30:13.327Z,0.00
2022-12-25T06:31:13.374Z,0.00
2022-12-25T06:32:13.282Z,0.00
2022-12-25T06:33:13.280Z,0.00
2022-12-25T06:34:13.240Z,0.00
2022-12-25T06:35:13.327Z,0.00
2022-12-25T06:36:13.277Z,0.00
2022-12-25T06:37:13.224Z,0.00
2022-12-25T06:38:13.228Z,0.00
2022-12-25T06:39:13.188Z,0.00
2022-12-25T06:40:13.264Z,0.00
2022-12-25T06:41:13.266Z,0.00
2022-12-25T06:42:13.153Z,0.00
2022-12-25T06:43:13.167Z,0.00
2022-12-25T06:45:22.507Z,0.00
2022-12-25T06:46:23.624Z,0.00
2022-12-25T06:47:22.494Z,0.00
2022-12-25T06:48:23.499Z,0.00
2022-12-25T06:49:22.450Z,0.00
2022-12-25T06:50:22.421Z,4.00
2022-12-25T06:51:22.457Z,0.00
2022-12-25T06:52:22.437Z,0.00
2022-12-25T06:53:22.468Z,0.00
2022-12-25T06:54:22.389Z,4.00
2022-12-25T06:55:22.393Z,4.00
2022-12-25T06:56:22.361Z,4.00
2022-12-25T06:57:22.366Z,0.00
2022-12-25T06:58:22.374Z,4.00
2022-12-25T06:59:22.350Z,4.00
2022-12-25T07:00:22.301Z,4.00
2022-12-25T07:01:22.513Z,4.00
2022-12-25T07:02:22.385Z,4.00
2022-12-25T07:03:22.377Z,8.00
2022-12-25T07:04:22.272Z,4.00
2022-12-25T07:05:22.301Z,4.00
2022-12-25T07:06:22.255Z,8.00
2022-12-25T07:07:23.239Z,8.00
2022-12-25T07:08:23.251Z,12.00
2022-12-25T07:09:22.223Z,8.00
2022-12-25T07:10:23.211Z,8.00
2022-12-25T07:11:22.211Z,8.00
2022-12-25T07:12:22.247Z,12.00
2022-12-25T07:13:22.176Z,8.00
2022-12-25T07:14:24.463Z,12.00
2022-12-25T07:15:22.140Z,12.00
2022-12-25T07:16:22.207Z,16.00
2022-12-25T07:17:23.173Z,16.00
2022-12-25T07:18:22.138Z,12.00
2022-12-25T07:19:22.103Z,16.00
2022-12-25T07:20:22.113Z,20.00
2022-12-25T07:21:22.099Z,20.00
2022-12-25T07:22:22.067Z,20.00
2022-12-25T07:23:22.052Z,20.00
2022-12-25T07:24:22.083Z,24.00
2022-12-25T07:25:23.043Z,24.00
2022-12-25T07:26:22.022Z,28.00
2022-12-25T07:27:22.039Z,28.00
2022-12-25T07:28:21.997Z,28.00
2022-12-25T07:29:22.031Z,32.00
2022-12-25T07:30:22.006Z,36.00
2022-12-25T07:31:22.043Z,32.00
2022-12-25T07:32:21.970Z,36.00
2022-12-25T07:33:21.957Z,36.00
2022-12-25T07:34:21.955Z,40.00
2022-12-25T07:35:22.918Z,44.00
2022-12-25T07:36:21.930Z,44.00
2022-12-25T07:37:21.920Z,44.00
2022-12-25T07:38:21.918Z,44.00
2022-12-25T07:39:21.910Z,48.00
2022-12-25T07:40:21.866Z,52.00
2022-12-25T07:41:21.870Z,52.00
2022-12-25T07:42:25.290Z,56.00
2022-12-25T07:43:21.843Z,60.00
2022-12-25T07:44:22.811Z,60.00
2022-12-25T07:45:21.826Z,64.00
2022-12-25T07:46:21.903Z,68.00
2022-12-25T07:47:21.792Z,72.00
2022-12-25T07:48:21.801Z,76.00
2022-12-25T07:49:21.787Z,80.00
2022-12-25T07:50:21.773Z,88.00
2022-12-25T07:51:21.737Z,88.00
2022-12-25T07:52:22.760Z,92.00
2022-12-25T07:53:21.748Z,96.00
2022-12-25T07:54:22.738Z,100.00
2022-12-25T07:55:22.689Z,100.00
2022-12-25T07:56:21.711Z,100.00
2022-12-25T07:57:21.684Z,100.00
2022-12-25T07:58:23.565Z,100.00
2022-12-25T07:59:22.673Z,92.00
2022-12-25T08:00:21.666Z,88.00
2022-12-25T08:01:21.907Z,84.00
2022-12-25T08:02:21.973Z,84.00
2022-12-25T08:03:21.912Z,80.00
2022-12-25T08:04:21.732Z,80.00
2022-12-25T08:05:21.607Z,76.00
2022-12-25T08:06:21.583Z,72.00
2022-12-25T08:07:21.581Z,68.00
2022-12-25T08:08:21.557Z,68.00
2022-12-25T08:09:21.557Z,68.00
2022-12-25T08:10:21.532Z,68.00
2022-12-25T08:11:21.571Z,64.00
2022-12-25T08:12:22.544Z,68.00
2022-12-25T08:13:21.512Z,68.00
2022-12-25T08:14:21.495Z,64.00
2022-12-25T08:15:21.477Z,60.00
2022-12-25T08:16:21.565Z,72.00
2022-12-25T08:17:21.457Z,72.00
2022-12-25T08:18:27.702Z,80.00
2022-12-25T08:19:22.441Z,88.00
2022-12-25T08:20:21.425Z,92.00
2022-12-25T08:21:22.416Z,96.00
2022-12-25T08:22:21.436Z,96.00
2022-12-25T08:23:21.397Z,100.00
2022-12-25T08:24:21.391Z,112.00
2022-12-25T08:25:21.401Z,120.00
2022-12-25T08:26:21.391Z,124.00
2022-12-25T08:27:21.385Z,124.00
2022-12-25T08:28:21.380Z,128.00
2022-12-25T08:29:21.342Z,132.00
2022-12-25T08:30:21.344Z,140.00
2022-12-25T08:31:21.413Z,152.00
2022-12-25T08:32:21.305Z,160.00
2022-12-25T08:33:21.293Z,168.00
2022-12-25T08:34:22.297Z,172.00
2022-12-25T08:35:21.276Z,176.00
2022-12-25T08:36:21.259Z,180.00
2022-12-25T08:37:21.236Z,176.00
2022-12-25T08:38:21.225Z,172.00
2022-12-25T08:39:21.222Z,176.00
2022-12-25T08:40:21.214Z,180.00
2022-12-25T08:41:22.180Z,188.00
2022-12-25T08:42:21.167Z,168.00
2022-12-25T08:43:21.175Z,168.00
2022-12-25T08:44:21.165Z,160.00
2022-12-25T08:45:21.163Z,168.00
2022-12-25T08:46:21.208Z,172.00
2022-12-25T08:47:21.135Z,176.00
2022-12-25T08:48:21.132Z,180.00
2022-12-25T08:49:22.117Z,196.00
2022-12-25T08:50:21.114Z,212.00
2022-12-25T08:51:21.082Z,228.00
2022-12-25T08:52:21.075Z,236.00
2022-12-25T08:53:21.076Z,248.00
2022-12-25T08:54:22.030Z,256.00
2022-12-25T08:55:22.072Z,252.00
2022-12-25T08:56:21.024Z,276.00
2022-12-25T08:57:21.137Z,276.00
2022-12-25T08:58:22.028Z,288.00
2022-12-25T08:59:21.010Z,300.00
2022-12-25T09:00:20.971Z,300.00
2022-12-25T09:01:21.116Z,296.00
2022-12-25T09:02:21.147Z,292.00
2022-12-25T09:03:21.044Z,264.00
2022-12-25T09:04:20.948Z,260.00
2022-12-25T09:05:20.944Z,256.00
2022-12-25T09:06:20.938Z,268.00
2022-12-25T09:07:20.901Z,260.00
2022-12-25T09:08:20.900Z,264.00
2022-12-25T09:09:20.925Z,252.00
2022-12-25T09:10:20.875Z,316.00
2022-12-25T09:11:20.903Z,260.00
2022-12-25T09:12:20.885Z,260.00
2022-12-25T09:13:20.894Z,272.00
2022-12-25T09:14:20.847Z,276.00
2022-12-25T09:15:20.812Z,280.00
2022-12-25T09:16:20.916Z,284.00
2022-12-25T09:17:20.808Z,276.00
2022-12-25T09:18:20.787Z,272.00
2022-12-25T09:19:20.805Z,268.00
2022-12-25T09:20:21.556Z,260.00
2022-12-25T09:21:20.761Z,248.00
2022-12-25T09:22:20.781Z,232.00
2022-12-25T09:23:20.758Z,224.00
2022-12-25T09:24:20.718Z,224.00
2022-12-25T09:25:20.709Z,224.00
2022-12-25T09:26:20.760Z,224.00
2022-12-25T09:27:20.707Z,228.00
2022-12-25T09:28:21.710Z,236.00
2022-12-25T09:29:20.666Z,236.00
2022-12-25T09:30:20.667Z,240.00
2022-12-25T09:31:20.786Z,248.00
2022-12-25T09:32:20.630Z,256.00
2022-12-25T09:33:20.623Z,316.00
2022-12-25T09:34:20.635Z,372.00
2022-12-25T09:35:20.621Z,368.00
2022-12-25T09:36:20.585Z,360.00
2022-12-25T09:37:20.580Z,364.00
2022-12-25T09:38:21.593Z,308.00
2022-12-25T09:39:20.557Z,264.00
2022-12-25T09:40:20.574Z,236.00
2022-12-25T09:41:20.556Z,216.00
2022-12-25T09:42:21.524Z,204.00
2022-12-25T09:43:20.535Z,200.00
2022-12-25T09:44:21.517Z,200.00
2022-12-25T09:45:21.509Z,196.00
2022-12-25T09:46:20.538Z,212.00
2022-12-25T09:47:20.497Z,344.00
2022-12-25T09:48:20.463Z,352.00
2022-12-25T09:49:20.460Z,360.00
2022-12-25T09:50:20.517Z,368.00
2022-12-25T09:51:20.413Z,264.00
2022-12-25T09:52:20.447Z,252.00
2022-12-25T09:53:21.389Z,252.00
2022-12-25T09:54:21.396Z,264.00
2022-12-25T09:55:21.191Z,348.00
2022-12-25T09:56:20.391Z,308.00
2022-12-25T09:57:20.368Z,344.00
2022-12-25T09:58:21.365Z,376.00
2022-12-25T09:59:21.352Z,336.00
2022-12-25T10:00:20.472Z,356.00
2022-12-25T10:01:20.498Z,440.00
2022-12-25T10:02:20.473Z,452.00
2022-12-25T10:03:20.335Z,444.00
2022-12-25T10:04:20.303Z,448.00
2022-12-25T10:05:20.260Z,396.00
2022-12-25T10:06:20.259Z,380.00
2022-12-25T10:07:21.249Z,312.00
2022-12-25T10:08:20.264Z,324.00
2022-12-25T10:09:20.227Z,312.00
2022-12-25T10:10:20.240Z,312.00
2022-12-25T10:11:20.212Z,300.00
2022-12-25T10:12:20.195Z,288.00
2022-12-25T10:13:20.195Z,324.00
2022-12-25T10:14:20.187Z,288.00
2022-12-25T10:15:20.183Z,272.00
2022-12-25T10:16:21.231Z,272.00
2022-12-25T10:17:20.128Z,280.00
2022-12-25T10:18:20.144Z,288.00
2022-12-25T10:19:20.112Z,296.00
2022-12-25T10:20:20.114Z,320.00
2022-12-25T10:21:20.120Z,336.00
2022-12-25T10:22:20.109Z,352.00
2022-12-25T10:23:20.074Z,364.00
2022-12-25T10:24:21.092Z,384.00
2022-12-25T10:25:21.064Z,356.00
2022-12-25T10:26:20.136Z,336.00
2022-12-25T10:27:20.033Z,328.00
2022-12-25T10:28:20.056Z,324.00
2022-12-25T10:29:20.001Z,324.00
2022-12-25T10:30:20.028Z,328.00
2022-12-25T10:31:20.140Z,328.00
2022-12-25T10:32:19.989Z,336.00
2022-12-25T10:33:19.982Z,348.00
2022-12-25T10:34:19.966Z,356.00
2022-12-25T10:35:19.935Z,368.00
2022-12-25T10:36:19.933Z,360.00
2022-12-25T10:37:19.946Z,432.00
2022-12-25T10:38:19.921Z,376.00
2022-12-25T10:39:19.919Z,360.00
2022-12-25T10:40:19.890Z,384.00
2022-12-25T10:41:19.911Z,376.00
2022-12-25T10:42:19.928Z,380.00
2022-12-25T10:43:19.862Z,380.00
2022-12-25T10:44:19.879Z,408.00
2022-12-25T10:45:20.833Z,380.00
2022-12-25T10:46:20.907Z,376.00
2022-12-25T10:47:19.810Z,340.00
2022-12-25T10:48:20.803Z,324.00
2022-12-25T10:49:19.821Z,304.00
2022-12-25T10:50:20.855Z,288.00
2022-12-25T10:51:19.766Z,272.00
2022-12-25T10:52:19.782Z,260.00
2022-12-25T10:53:19.745Z,252.00
2022-12-25T10:54:19.716Z,248.00
2022-12-25T10:55:24.986Z,248.00
2022-12-25T10:56:20.713Z,244.00
2022-12-25T10:57:20.716Z,252.00
2022-12-25T10:58:19.693Z,256.00
2022-12-25T10:59:19.671Z,280.00
2022-12-25T11:00:19.674Z,256.00
2022-12-25T11:01:19.777Z,268.00
2022-12-25T11:02:19.910Z,268.00
2022-12-25T11:03:19.842Z,252.00
2022-12-25T11:04:20.608Z,248.00
2022-12-25T11:05:19.605Z,252.00
2022-12-25T11:06:19.597Z,256.00
2022-12-25T11:07:20.604Z,252.00
2022-12-25T11:08:20.596Z,252.00
2022-12-25T11:09:19.562Z,252.00
2022-12-25T11:10:19.547Z,256.00
2022-12-25T11:11:19.547Z,252.00
2022-12-25T11:12:19.593Z,252.00
2022-12-25T11:13:20.539Z,252.00
2022-12-25T11:14:19.529Z,252.00
2022-12-25T11:15:19.485Z,252.00
2022-12-25T11:16:19.572Z,252.00
2022-12-25T11:17:19.463Z,244.00
2022-12-25T11:18:19.479Z,244.00
2022-12-25T11:19:19.495Z,244.00
2022-12-25T11:20:19.459Z,244.00
2022-12-25T11:21:19.414Z,236.00
2022-12-25T11:22:19.420Z,224.00
2022-12-25T11:23:19.418Z,204.00
2022-12-25T11:24:19.410Z,188.00
2022-12-25T11:25:19.398Z,188.00
2022-12-25T11:26:19.383Z,188.00
2022-12-25T11:27:19.362Z,188.00
2022-12-25T11:28:19.364Z,196.00
2022-12-25T11:29:20.350Z,204.00
2022-12-25T11:30:19.439Z,212.00
2022-12-25T11:31:19.450Z,216.00
2022-12-25T11:32:19.340Z,216.00
2022-12-25T11:33:19.304Z,224.00
2022-12-25T11:34:19.305Z,228.00
2022-12-25T11:35:19.309Z,232.00
2022-12-25T11:36:20.304Z,236.00
2022-12-25T11:37:19.239Z,244.00
2022-12-25T11:38:19.228Z,248.00
2022-12-25T11:39:19.230Z,248.00
2022-12-25T11:40:19.225Z,252.00
2022-12-25T11:41:19.217Z,260.00
2022-12-25T11:42:19.217Z,276.00
2022-12-25T11:43:19.180Z,272.00
2022-12-25T11:44:19.173Z,260.00
2022-12-25T11:45:19.185Z,240.00
2022-12-25T11:46:19.188Z,220.00
2022-12-25T11:47:19.148Z,208.00
2022-12-25T11:48:20.135Z,188.00
2022-12-25T11:49:19.137Z,176.00
2022-12-25T11:50:20.138Z,176.00
2022-12-25T11:51:19.088Z,184.00
2022-12-25T11:52:20.112Z,200.00
2022-12-25T11:53:19.104Z,196.00
2022-12-25T11:54:20.087Z,196.00
2022-12-25T11:55:19.040Z,188.00
2022-12-25T11:56:19.027Z,188.00
2022-12-25T11:57:19.056Z,188.00
2022-12-25T11:58:20.030Z,192.00
2022-12-25T11:59:19.026Z,196.00
2022-12-25T12:00:19.040Z,196.00
2022-12-25T12:01:19.025Z,212.00
2022-12-25T12:02:19.152Z,232.00
2022-12-25T12:03:19.078Z,252.00
2022-12-25T12:04:21.033Z,236.00
2022-12-25T12:05:19.925Z,236.00
2022-12-25T12:06:18.924Z,236.00
2022-12-25T12:07:18.933Z,240.00
2022-12-25T12:08:18.925Z,252.00
2022-12-25T12:09:18.894Z,264.00
2022-12-25T12:10:18.905Z,272.00
2022-12-25T12:11:19.875Z,268.00
2022-12-25T12:12:18.909Z,268.00
2022-12-25T12:13:18.854Z,272.00
2022-12-25T12:14:18.840Z,284.00
2022-12-25T12:15:19.936Z,296.00
2022-12-25T12:16:18.908Z,300.00
2022-12-25T12:17:18.823Z,304.00
2022-12-25T12:18:18.847Z,300.00
2022-12-25T12:19:18.788Z,288.00
2022-12-25T12:20:18.782Z,280.00
2022-12-25T12:21:18.761Z,264.00
2022-12-25T12:22:19.742Z,260.00
2022-12-25T12:23:19.785Z,264.00
2022-12-25T12:24:18.751Z,272.00
2022-12-25T12:25:18.727Z,276.00
2022-12-25T12:26:18.720Z,284.00
2022-12-25T12:27:18.684Z,292.00
2022-12-25T12:28:18.698Z,284.00
2022-12-25T12:29:19.672Z,272.00
2022-12-25T12:30:19.673Z,252.00
2022-12-25T12:31:18.714Z,224.00
2022-12-25T12:32:18.643Z,200.00
2022-12-25T12:33:18.654Z,188.00
2022-12-25T12:34:18.645Z,188.00
2022-12-25T12:35:18.625Z,196.00
2022-12-25T12:36:25.116Z,196.00
2022-12-25T12:37:24.607Z,184.00
2022-12-25T12:38:19.916Z,180.00
2022-12-25T12:39:18.572Z,180.00
2022-12-25T12:40:19.549Z,176.00
2022-12-25T12:41:18.537Z,172.00
2022-12-25T12:42:19.540Z,172.00
2022-12-25T12:43:18.534Z,180.00
2022-12-25T12:44:18.522Z,188.00
2022-12-25T12:45:18.502Z,188.00
2022-12-25T12:46:21.548Z,192.00
2022-12-25T12:47:19.457Z,188.00
2022-12-25T12:48:19.472Z,192.00
2022-12-25T12:49:19.448Z,188.00
2022-12-25T12:50:19.467Z,188.00
2022-12-25T12:51:18.428Z,180.00
2022-12-25T12:52:18.406Z,168.00
2022-12-25T12:53:18.411Z,160.00
2022-12-25T12:54:18.425Z,148.00
2022-12-25T12:55:19.389Z,136.00
2022-12-25T12:56:18.388Z,120.00
2022-12-25T12:57:18.389Z,112.00
2022-12-25T12:58:18.367Z,96.00